Time;durP1;ratioP1;P1;durP2;ratioP2;P2;SDS_P1;SDS_P2;PMS_P1;PMS_P2;Temp;Humidity;BMP_temperature;BMP_pressure;BME280_temperature;BME280_humidity;BME280_pressure;Samples;Min_cycle;Max_cycle;Signal;HPM_P1;HPM_P2
2022/02/21 00:00:46;;;;;;;4.72;1.85;;;19.20;95.80;;;;;;4161613;28;20096;-69
2022/02/21 00:02:54;;;;;;;4.88;1.70;;;19.10;96.00;;;;;;4162843;28;20046;-68
2022/02/21 00:04:58;;;;;;;3.70;1.75;;;19.10;95.90;;;;;;4159247;28;20050;-68
2022/02/21 00:07:03;;;;;;;5.72;1.90;;;19.20;95.80;;;;;;4166393;28;20041;-69
2022/02/21 00:09:12;;;;;;;2.45;1.70;;;19.30;95.90;;;;;;4163010;28;20046;-69
2022/02/21 00:11:16;;;;;;;2.60;1.70;;;19.30;95.90;;;;;;4162738;28;20065;-69
2022/02/21 00:13:21;;;;;;;3.15;1.83;;;19.30;95.80;;;;;;4161281;28;20053;-68
2022/02/21 00:15:31;;;;;;;3.45;1.60;;;19.30;95.70;;;;;;4159355;28;20057;-69
2022/02/21 00:17:35;;;;;;;2.92;1.80;;;19.30;95.70;;;;;;4160341;28;20137;-69
2022/02/21 00:19:40;;;;;;;2.83;1.83;;;19.40;95.70;;;;;;4170139;28;20075;-69
2022/02/21 00:21:50;;;;;;;2.63;1.45;;;19.30;96.00;;;;;;4162840;28;20421;-68
2022/02/21 00:23:56;;;;;;;4.95;1.60;;;19.30;95.80;;;;;;4161552;28;20042;-69
2022/02/21 00:26:00;;;;;;;5.07;1.65;;;19.20;95.80;;;;;;4161981;28;20052;-68
2022/02/21 00:28:08;;;;;;;3.83;1.83;;;19.20;95.90;;;;;;4162554;28;20076;-69
2022/02/21 00:30:15;;;;;;;3.70;1.75;;;19.30;95.90;;;;;;4193628;28;20072;-69
2022/02/21 00:32:20;;;;;;;2.90;1.80;;;19.20;96.30;;;;;;4161780;28;20088;-69
2022/02/21 00:34:30;;;;;;;3.33;1.50;;;19.30;95.90;;;;;;4166526;28;20054;-68
2022/02/21 00:36:34;;;;;;;2.70;1.60;;;19.30;95.70;;;;;;4161600;28;20049;-69
2022/02/21 00:38:39;;;;;;;3.83;1.65;;;19.20;95.90;;;;;;4161282;28;20041;-68
2022/02/21 00:40:46;;;;;;;2.65;1.70;;;19.00;95.60;;;;;;4170325;28;20099;-72
2022/02/21 00:42:50;;;;;;;2.60;1.70;;;19.00;96.10;;;;;;4170356;28;20050;-70
2022/02/21 00:44:57;;;;;;;1.90;1.40;;;19.00;96.30;;;;;;4161907;28;20069;-70
2022/02/21 00:47:07;;;;;;;1.73;1.20;;;19.10;96.20;;;;;;4169791;28;20042;-70
2022/02/21 00:49:11;;;;;;;2.13;1.50;;;19.10;96.10;;;;;;4158367;28;20045;-70
2022/02/21 00:51:16;;;;;;;6.22;2.63;;;19.10;96.30;;;;;;4162158;28;20119;-70
2022/02/21 00:53:24;;;;;;;4.43;3.00;;;18.90;96.30;;;;;;4162160;28;20107;-70
2022/02/21 00:55:30;;;;;;;5.88;3.72;;;19.00;96.60;;;;;;4162126;28;20516;-70
2022/02/21 00:57:34;;;;;;;5.93;3.70;;;18.80;96.50;;;;;;4169669;28;20068;-70
2022/02/21 00:59:43;;;;;;;7.78;3.35;;;18.80;96.80;;;;;;4161945;28;20045;-70
2022/02/21 01:01:47;;;;;;;4.75;2.88;;;18.90;96.90;;;;;;4161773;28;20107;-71
2022/02/21 01:03:52;;;;;;;5.05;2.20;;;18.80;96.20;;;;;;4161859;28;20053;-70
2022/02/21 01:05:58;;;;;;;2.33;1.80;;;18.90;96.00;;;;;;4160745;28;20124;-70
2022/02/21 01:08:03;;;;;;;1.90;1.48;;;18.60;96.50;;;;;;4162195;28;20056;-70
2022/02/21 01:10:10;;;;;;;3.10;1.65;;;18.50;96.60;;;;;;4162135;28;20053;-70
2022/02/21 01:12:18;;;;;;;2.63;1.80;;;18.60;96.60;;;;;;4160347;28;20128;-69
2022/02/21 01:14:23;;;;;;;2.45;1.30;;;18.80;96.50;;;;;;4160408;28;20080;-70
2022/02/21 01:16:30;;;;;;;3.28;1.27;;;18.90;95.90;;;;;;4158533;28;20061;-70
2022/02/21 01:18:39;;;;;;;1.83;1.05;;;19.00;95.60;;;;;;4161348;28;20077;-70
2022/02/21 01:20:44;;;;;;;2.90;1.55;;;19.00;95.70;;;;;;4167321;28;20061;-69
2022/02/21 01:22:48;;;;;;;3.10;1.42;;;18.90;95.60;;;;;;4165498;28;20685;-70
2022/02/21 01:24:54;;;;;;;4.03;1.35;;;19.00;95.40;;;;;;4157706;28;20064;-70
2022/02/21 01:27:00;;;;;;;2.67;1.50;;;19.10;95.40;;;;;;4157119;28;20041;-70
2022/02/21 01:29:04;;;;;;;3.85;1.52;;;19.20;95.50;;;;;;4164129;28;20051;-70
2022/02/21 01:31:10;;;;;;;2.13;1.60;;;19.30;95.40;;;;;;4161086;28;20397;-70
2022/02/21 01:33:15;;;;;;;6.25;2.30;;;19.30;95.50;;;;;;4160016;28;20049;-70
2022/02/21 01:35:20;;;;;;;1.95;1.42;;;19.30;95.60;;;;;;4161130;28;20722;-70
2022/02/21 01:37:25;;;;;;;2.00;1.42;;;19.30;95.50;;;;;;4158300;28;20053;-69
2022/02/21 01:39:32;;;;;;;2.80;1.80;;;19.30;95.70;;;;;;4156728;28;20136;-70
2022/02/21 01:41:36;;;;;;;2.60;1.80;;;19.10;96.10;;;;;;4167188;28;20548;-70
2022/02/21 01:43:41;;;;;;;4.47;1.90;;;19.10;96.10;;;;;;4163710;28;20049;-70
2022/02/21 01:45:46;;;;;;;3.53;1.90;;;19.20;96.00;;;;;;4157531;28;20480;-70
2022/02/21 01:47:51;;;;;;;3.42;1.60;;;19.20;96.30;;;;;;4161016;28;20060;-70
2022/02/21 01:49:57;;;;;;;4.18;1.90;;;19.00;96.10;;;;;;4161518;28;20564;-70
2022/02/21 01:52:03;;;;;;;3.35;1.70;;;19.00;96.20;;;;;;4160936;28;20038;-69
2022/02/21 01:54:12;;;;;;;3.05;1.65;;;18.70;96.50;;;;;;4163466;28;20129;-71
2022/02/21 01:56:21;;;;;;;3.55;1.92;;;18.70;96.50;;;;;;4159554;28;20073;-71
2022/02/21 01:58:26;;;;;;;2.30;1.55;;;18.70;97.00;;;;;;4160413;28;20456;-70
2022/02/21 02:00:30;;;;;;;3.65;2.00;;;18.90;97.00;;;;;;4161200;28;20086;-70
2022/02/21 02:02:43;;;;;;;5.50;1.75;;;19.10;96.80;;;;;;4159343;28;20049;-70
2022/02/21 02:04:47;;;;;;;3.75;2.10;;;19.30;96.40;;;;;;4152704;28;20107;-70
2022/02/21 02:06:52;;;;;;;3.25;1.67;;;19.20;95.80;;;;;;4160093;28;20053;-69
2022/02/21 02:09:00;;;;;;;2.85;1.60;;;18.90;96.40;;;;;;4163664;28;20057;-69
2022/02/21 02:11:05;;;;;;;4.85;1.60;;;18.80;96.20;;;;;;4161218;28;20076;-70
2022/02/21 02:13:10;;;;;;;2.83;1.70;;;18.90;96.30;;;;;;4161342;28;20175;-68
2022/02/21 02:15:20;;;;;;;3.17;1.90;;;19.10;96.00;;;;;;4161382;28;20685;-69
2022/02/21 02:17:26;;;;;;;2.67;1.83;;;19.10;96.30;;;;;;4160478;28;20050;-70
2022/02/21 02:19:31;;;;;;;2.10;1.45;;;19.10;95.70;;;;;;4160913;28;20103;-69
2022/02/21 02:21:40;;;;;;;3.13;1.55;;;19.10;96.00;;;;;;4161337;28;20065;-68
2022/02/21 02:23:45;;;;;;;4.00;2.00;;;19.20;96.20;;;;;;4159717;28;20046;-70
2022/02/21 02:25:49;;;;;;;2.80;1.70;;;19.20;96.20;;;;;;4159972;28;20555;-71
2022/02/21 02:27:56;;;;;;;2.72;2.22;;;19.30;95.90;;;;;;4160636;28;20076;-69
2022/02/21 02:30:02;;;;;;;3.40;1.80;;;19.20;96.10;;;;;;4157525;28;20403;-69
2022/02/21 02:32:07;;;;;;;4.72;1.58;;;19.30;96.00;;;;;;4159515;28;20091;-71
2022/02/21 02:34:15;;;;;;;3.83;1.98;;;19.40;95.80;;;;;;4158934;28;20068;-70
2022/02/21 02:36:19;;;;;;;2.53;1.63;;;19.40;95.70;;;;;;4168183;28;20061;-69
2022/02/21 02:38:23;;;;;;;3.03;2.00;;;19.30;95.60;;;;;;4160238;28;20789;-69
2022/02/21 02:40:34;;;;;;;3.35;2.20;;;19.20;95.60;;;;;;4162229;28;20492;-72
2022/02/21 02:42:38;;;;;;;2.40;1.58;;;19.10;96.30;;;;;;4163910;28;20049;-71
2022/02/21 02:44:43;;;;;;;4.32;2.15;;;19.30;95.90;;;;;;4163323;28;20389;-69
2022/02/21 02:46:49;;;;;;;3.53;2.40;;;19.20;95.60;;;;;;4163363;28;20042;-69
2022/02/21 02:48:53;;;;;;;4.03;1.80;;;19.40;96.40;;;;;;4162545;28;20045;-70
2022/02/21 02:50:58;;;;;;;3.30;1.70;;;19.60;95.60;;;;;;4160123;28;20050;-70
2022/02/21 02:53:06;;;;;;;2.45;1.75;;;19.70;95.30;;;;;;4161028;28;20042;-70
2022/02/21 02:55:10;;;;;;;12.25;2.53;;;19.70;95.30;;;;;;4163930;28;20049;-68
2022/02/21 02:57:15;;;;;;;6.05;2.15;;;19.80;95.50;;;;;;4163379;28;20132;-68
2022/02/21 02:59:25;;;;;;;4.28;1.65;;;19.90;95.30;;;;;;4163548;28;20111;-70
2022/02/21 03:01:29;;;;;;;5.72;2.42;;;20.00;95.20;;;;;;4162633;28;20743;-70
2022/02/21 03:03:34;;;;;;;2.85;2.00;;;20.10;95.20;;;;;;4168673;28;20049;-70
2022/02/21 03:05:40;;;;;;;4.07;1.80;;;20.20;95.30;;;;;;4172521;28;20145;-68
2022/02/21 03:07:44;;;;;;;3.53;1.80;;;20.20;95.00;;;;;;4165088;28;20045;-68
2022/02/21 03:09:49;;;;;;;3.03;1.83;;;20.20;94.80;;;;;;4165414;28;20049;-69
2022/02/21 03:11:55;;;;;;;4.00;2.00;;;20.20;94.50;;;;;;4163841;28;20037;-68
2022/02/21 03:13:59;;;;;;;3.15;2.05;;;20.20;94.20;;;;;;4161091;28;20122;-69
2022/02/21 03:16:04;;;;;;;3.78;2.38;;;20.00;94.80;;;;;;4164447;28;20049;-68
2022/02/21 03:18:13;;;;;;;2.25;1.65;;;20.20;94.70;;;;;;4163016;28;20053;-70
2022/02/21 03:20:18;;;;;;;6.88;2.10;;;20.30;94.60;;;;;;4163286;28;20053;-69
2022/02/21 03:22:22;;;;;;;5.15;1.92;;;20.30;94.90;;;;;;4163123;28;20053;-70
2022/02/21 03:24:30;;;;;;;2.95;2.05;;;20.30;94.60;;;;;;4157503;28;20061;-68
2022/02/21 03:26:35;;;;;;;3.35;2.00;;;20.20;94.60;;;;;;4153377;28;20772;-69
2022/02/21 03:28:39;;;;;;;3.72;1.77;;;20.30;94.90;;;;;;4161760;28;20124;-71
2022/02/21 03:30:47;;;;;;;5.53;1.77;;;20.40;94.80;;;;;;4161982;28;20056;-68
2022/02/21 03:32:52;;;;;;;5.68;2.40;;;20.50;94.70;;;;;;4162845;28;20103;-68
2022/02/21 03:34:57;;;;;;;3.22;1.90;;;20.60;94.40;;;;;;4162289;28;20053;-68
2022/02/21 03:37:01;;;;;;;2.63;1.88;;;20.70;94.30;;;;;;4163364;28;20045;-68
2022/02/21 03:39:06;;;;;;;3.33;1.73;;;20.70;94.20;;;;;;4161245;28;20103;-69
2022/02/21 03:41:10;;;;;;;2.70;1.73;;;20.80;93.90;;;;;;4162849;28;20508;-69
2022/02/21 03:43:16;;;;;;;2.45;1.52;;;20.90;93.80;;;;;;4163384;28;20050;-68
2022/02/21 03:45:22;;;;;;;6.20;2.30;;;20.90;93.80;;;;;;4163161;28;20046;-68
2022/02/21 03:47:26;;;;;;;3.85;2.30;;;21.00;93.80;;;;;;4161405;28;20080;-68
2022/02/21 03:49:34;;;;;;;7.47;2.40;;;20.80;93.50;;;;;;4162585;28;20045;-69
2022/02/21 03:51:38;;;;;;;4.53;2.25;;;20.80;94.20;;;;;;4162595;28;20493;-68
2022/02/21 03:53:43;;;;;;;5.55;2.17;;;20.90;94.00;;;;;;4159678;28;20045;-69
2022/02/21 03:55:51;;;;;;;3.83;1.80;;;21.00;93.50;;;;;;4165962;28;20102;-66
2022/02/21 03:57:55;;;;;;;5.75;2.38;;;20.50;93.80;;;;;;4162299;28;20048;-67
2022/02/21 04:00:00;;;;;;;4.15;2.45;;;20.50;94.30;;;;;;4163816;28;20056;-70
2022/02/21 04:02:13;;;;;;;5.95;2.22;;;20.50;94.50;;;;;;4163083;28;20514;-69
2022/02/21 04:04:18;;;;;;;5.13;2.10;;;20.70;94.30;;;;;;4159182;28;20045;-68
2022/02/21 04:06:22;;;;;;;4.85;2.30;;;20.90;94.00;;;;;;4162918;28;20050;-68
2022/02/21 04:08:31;;;;;;;5.38;2.00;;;20.50;94.30;;;;;;4162106;28;20068;-68
2022/02/21 04:10:35;;;;;;;2.65;1.80;;;20.70;94.20;;;;;;4162917;28;20378;-68
2022/02/21 04:12:40;;;;;;;2.97;2.13;;;21.10;94.00;;;;;;4162313;28;20806;-69
2022/02/21 04:14:49;;;;;;;3.63;1.85;;;21.30;93.60;;;;;;4162723;28;20045;-69
2022/02/21 04:16:53;;;;;;;4.30;1.90;;;21.50;93.60;;;;;;4159772;28;20041;-69
2022/02/21 04:19:02;;;;;;;3.75;2.13;;;21.50;93.60;;;;;;4162389;28;20136;-68
2022/02/21 04:21:10;;;;;;;6.20;2.30;;;21.50;93.30;;;;;;4166943;28;20075;-69
2022/02/21 04:23:15;;;;;;;3.25;2.20;;;21.50;93.50;;;;;;4161302;28;20872;-69
2022/02/21 04:25:19;;;;;;;3.40;2.22;;;21.40;93.50;;;;;;4162071;28;20065;-68
2022/02/21 04:27:25;;;;;;;3.83;2.03;;;21.50;93.60;;;;;;4161253;28;20058;-69
2022/02/21 04:29:30;;;;;;;3.70;2.15;;;21.50;93.60;;;;;;4171691;28;20578;-68
2022/02/21 04:31:35;;;;;;;4.50;2.00;;;21.50;93.60;;;;;;4163628;28;20037;-69
2022/02/21 04:33:46;;;;;;;4.30;2.50;;;21.30;93.40;;;;;;4160502;28;20045;-68
2022/02/21 04:35:51;;;;;;;4.63;2.20;;;21.30;93.40;;;;;;4154381;28;20075;-68
2022/02/21 04:37:56;;;;;;;4.93;2.08;;;21.40;93.30;;;;;;4160635;28;20060;-69
2022/02/21 04:40:03;;;;;;;3.97;2.22;;;21.20;93.10;;;;;;4160339;28;20072;-69
2022/02/21 04:42:08;;;;;;;3.53;2.10;;;21.00;93.90;;;;;;4162127;28;20049;-69
2022/02/21 04:44:13;;;;;;;3.78;2.42;;;21.10;94.00;;;;;;4161403;28;20052;-70
2022/02/21 04:46:21;;;;;;;3.67;2.50;;;21.10;94.00;;;;;;4162079;28;20087;-69
2022/02/21 04:48:26;;;;;;;3.15;2.10;;;21.10;93.40;;;;;;4158087;28;20049;-69
2022/02/21 04:50:30;;;;;;;5.13;2.20;;;21.10;94.20;;;;;;4163690;28;20478;-68
2022/02/21 04:52:37;;;;;;;4.22;2.30;;;21.10;93.90;;;;;;4189604;28;20147;-69
2022/02/21 04:54:41;;;;;;;3.95;2.20;;;20.70;94.60;;;;;;4158676;28;20520;-69
2022/02/21 04:56:46;;;;;;;3.28;2.03;;;21.00;94.60;;;;;;4161508;28;20049;-70
2022/02/21 04:58:51;;;;;;;5.57;2.15;;;21.10;94.30;;;;;;4163517;28;20049;-69
2022/02/21 05:00:56;;;;;;;4.03;2.20;;;21.30;94.10;;;;;;4161918;28;20037;-69
2022/02/21 05:03:01;;;;;;;4.20;2.38;;;21.50;93.90;;;;;;4160988;28;20080;-69
2022/02/21 05:05:10;;;;;;;5.20;2.80;;;21.20;93.90;;;;;;4164061;28;20077;-68
2022/02/21 05:07:15;;;;;;;3.53;2.25;;;21.30;93.70;;;;;;4159654;28;20037;-68
2022/02/21 05:09:19;;;;;;;3.05;2.15;;;21.10;93.70;;;;;;4166994;28;20491;-67
2022/02/21 05:11:27;;;;;;;4.13;2.42;;;21.10;93.90;;;;;;4165882;28;20056;-67
2022/02/21 05:13:31;;;;;;;6.07;2.42;;;20.70;94.60;;;;;;4166812;28;20050;-67
2022/02/21 05:15:36;;;;;;;3.45;2.38;;;20.80;94.70;;;;;;4167702;28;20057;-69
2022/02/21 05:17:44;;;;;;;2.58;1.98;;;21.00;94.20;;;;;;4167432;28;20055;-69
2022/02/21 05:19:51;;;;;;;3.00;2.40;;;21.30;94.00;;;;;;4167432;28;20389;-68
2022/02/21 05:21:55;;;;;;;3.60;2.33;;;21.20;93.90;;;;;;4166317;28;20458;-68
2022/02/21 05:24:01;;;;;;;4.40;2.80;;;21.40;93.70;;;;;;4168936;28;20045;-68
2022/02/21 05:26:07;;;;;;;4.60;2.60;;;21.30;93.90;;;;;;4169336;28;20549;-68
2022/02/21 05:28:12;;;;;;;3.75;2.55;;;21.50;93.90;;;;;;4171735;28;20055;-67
2022/02/21 05:30:18;;;;;;;3.97;2.35;;;21.70;93.50;;;;;;4169322;28;20049;-68
2022/02/21 05:32:25;;;;;;;4.32;2.28;;;21.80;93.10;;;;;;4169469;28;20083;-68
2022/02/21 05:34:29;;;;;;;4.20;2.70;;;21.90;93.30;;;;;;4166170;28;20051;-68
2022/02/21 05:36:36;;;;;;;4.50;2.53;;;22.10;93.10;;;;;;4164853;28;20140;-68
2022/02/21 05:38:40;;;;;;;4.00;2.20;;;22.20;92.70;;;;;;4166672;28;20058;-68
2022/02/21 05:40:45;;;;;;;3.22;2.53;;;22.40;92.60;;;;;;4168987;28;20126;-68
2022/02/21 05:42:53;;;;;;;6.03;2.70;;;22.20;93.10;;;;;;4169528;28;20114;-68
2022/02/21 05:45:01;;;;;;;4.82;2.60;;;22.20;93.10;;;;;;4165873;28;20427;-68
2022/02/21 05:47:17;;;;;;;3.30;2.22;;;22.20;92.80;;;;;;4163287;28;20053;-68
2022/02/21 05:49:27;;;;;;;4.32;2.63;;;22.20;93.20;;;;;;4159848;28;20497;-68
2022/02/21 05:51:31;;;;;;;4.28;2.35;;;22.30;93.30;;;;;;4167923;28;20108;-69
2022/02/21 05:53:36;;;;;;;3.90;2.40;;;22.50;93.20;;;;;;4161800;28;20108;-68
2022/02/21 05:55:46;;;;;;;3.83;2.42;;;22.70;92.90;;;;;;4169185;28;20041;-69
2022/02/21 05:57:55;;;;;;;4.22;2.38;;;22.40;92.60;;;;;;4164162;28;20136;-69
2022/02/21 06:00:02;;;;;;;7.32;2.70;;;22.40;92.70;;;;;;4169067;28;20053;-70
2022/02/21 06:02:13;;;;;;;3.92;2.30;;;22.60;92.50;;;;;;4170111;28;20289;-69
2022/02/21 06:04:17;;;;;;;4.50;2.40;;;22.80;92.40;;;;;;4163836;28;20568;-68
2022/02/21 06:06:22;;;;;;;3.90;2.47;;;22.80;92.30;;;;;;4168907;28;20105;-69
2022/02/21 06:08:30;;;;;;;4.68;2.33;;;22.50;92.60;;;;;;4166245;28;20059;-68
2022/02/21 06:10:34;;;;;;;4.85;2.45;;;22.60;92.20;;;;;;4163558;28;20041;-68
2022/02/21 06:12:39;;;;;;;4.05;2.40;;;22.70;92.30;;;;;;4165077;28;20048;-69
2022/02/21 06:14:45;;;;;;;4.07;2.53;;;22.70;92.70;;;;;;4167386;28;20097;-68
2022/02/21 06:16:50;;;;;;;5.32;2.58;;;22.70;92.50;;;;;;4166382;28;20124;-68
2022/02/21 06:18:55;;;;;;;5.55;2.22;;;22.80;92.10;;;;;;4159658;28;20053;-68
2022/02/21 06:21:01;;;;;;;5.93;2.50;;;22.80;92.30;;;;;;4168565;28;20131;-69
2022/02/21 06:23:06;;;;;;;3.63;2.50;;;23.00;92.20;;;;;;4164413;28;20045;-69
2022/02/21 06:25:10;;;;;;;3.13;2.25;;;23.10;92.20;;;;;;4168313;28;20044;-69
2022/02/21 06:27:18;;;;;;;3.70;2.55;;;23.00;92.00;;;;;;4167909;28;20084;-68
2022/02/21 06:29:24;;;;;;;5.65;2.78;;;23.10;92.10;;;;;;4167589;28;20049;-69
2022/02/21 06:31:30;;;;;;;3.92;2.50;;;23.20;92.00;;;;;;4165263;28;20104;-69
2022/02/21 06:33:37;;;;;;;4.10;2.60;;;23.30;91.90;;;;;;4168235;28;20645;-70
2022/02/21 06:35:43;;;;;;;4.38;2.65;;;23.40;91.70;;;;;;4167191;28;20049;-71
2022/02/21 06:37:54;;;;;;;3.25;2.33;;;23.30;92.00;;;;;;4167086;28;20147;-71
2022/02/21 06:40:00;;;;;;;4.07;2.60;;;23.40;92.00;;;;;;4167188;28;20064;-71
2022/02/21 06:42:05;;;;;;;3.55;2.55;;;23.40;91.70;;;;;;4165067;28;20049;-71
2022/02/21 06:44:12;;;;;;;3.38;2.40;;;23.50;91.80;;;;;;4166288;28;20392;-71
2022/02/21 06:46:20;;;;;;;5.88;2.83;;;23.20;92.00;;;;;;4165563;28;20052;-71
2022/02/21 06:48:24;;;;;;;3.97;2.72;;;22.90;91.90;;;;;;4165031;28;20038;-71
2022/02/21 06:50:29;;;;;;;3.72;2.88;;;23.00;92.70;;;;;;4166942;28;20073;-70
2022/02/21 06:52:35;;;;;;;5.53;3.15;;;22.80;92.00;;;;;;4164843;28;20090;-70
2022/02/21 06:54:40;;;;;;;5.10;3.40;;;22.70;92.20;;;;;;4165859;28;20039;-68
2022/02/21 06:56:46;;;;;;;3.42;2.63;;;22.90;92.30;;;;;;4164246;28;20381;-68
2022/02/21 06:58:55;;;;;;;4.07;2.85;;;23.10;92.20;;;;;;4168448;28;20579;-68
2022/02/21 07:01:00;;;;;;;5.03;2.60;;;23.10;92.00;;;;;;4166388;28;20045;-69
2022/02/21 07:03:04;;;;;;;3.65;2.53;;;23.10;92.20;;;;;;4164514;28;20045;-69
2022/02/21 07:05:11;;;;;;;3.67;2.40;;;23.40;92.20;;;;;;4166415;28;20041;-68
2022/02/21 07:07:17;;;;;;;4.18;2.67;;;23.50;92.20;;;;;;4167896;28;20049;-69
2022/02/21 07:09:21;;;;;;;4.05;2.47;;;23.60;91.90;;;;;;4168070;28;20049;-69
2022/02/21 07:11:31;;;;;;;4.43;2.65;;;23.50;91.50;;;;;;4171906;28;20136;-69
2022/02/21 07:13:37;;;;;;;3.42;2.67;;;22.60;92.00;;;;;;4171589;28;20068;-69
2022/02/21 07:15:41;;;;;;;4.15;2.80;;;22.50;92.90;;;;;;4172472;28;20168;-70
2022/02/21 07:17:50;;;;;;;5.57;2.97;;;22.80;92.90;;;;;;4169987;28;20375;-69
2022/02/21 07:19:55;;;;;;;3.88;3.05;;;23.00;92.50;;;;;;4169477;28;20080;-69
2022/02/21 07:22:03;;;;;;;3.30;2.80;;;23.10;92.50;;;;;;4169178;28;20476;-69
2022/02/21 07:24:11;;;;;;;5.85;2.97;;;22.80;92.70;;;;;;4169257;28;20568;-68
2022/02/21 07:26:18;;;;;;;5.45;3.30;;;22.70;92.80;;;;;;4171347;28;20067;-69
2022/02/21 07:28:22;;;;;;;4.88;3.08;;;22.70;92.70;;;;;;4169594;28;20072;-68
2022/02/21 07:30:31;;;;;;;5.22;2.97;;;22.80;92.80;;;;;;4167187;28;20124;-69
2022/02/21 07:32:35;;;;;;;3.45;2.78;;;23.10;92.60;;;;;;4171341;28;20440;-68
2022/02/21 07:34:39;;;;;;;4.22;3.13;;;23.40;92.20;;;;;;4168227;28;20124;-68
2022/02/21 07:36:48;;;;;;;5.22;3.33;;;23.50;92.10;;;;;;4168025;28;20046;-68
2022/02/21 07:38:53;;;;;;;4.22;2.65;;;23.70;92.10;;;;;;4171735;28;20843;-68
2022/02/21 07:41:01;;;;;;;4.25;2.72;;;23.80;91.90;;;;;;4159654;28;20053;-69
2022/02/21 07:43:08;;;;;;;4.80;2.30;;;23.70;91.80;;;;;;4167649;28;20095;-68
2022/02/21 07:45:13;;;;;;;5.20;2.80;;;23.80;92.10;;;;;;4170354;28;20112;-69
2022/02/21 07:47:17;;;;;;;4.13;2.72;;;23.60;91.80;;;;;;4170110;28;20165;-68
2022/02/21 07:49:26;;;;;;;3.80;2.50;;;23.40;92.40;;;;;;4170973;28;20037;-68
2022/02/21 07:51:30;;;;;;;3.60;2.20;;;23.30;92.20;;;;;;4169897;28;20048;-68
2022/02/21 07:53:35;;;;;;;6.13;2.50;;;23.40;92.40;;;;;;4166428;28;20046;-68
2022/02/21 07:55:41;;;;;;;3.83;2.45;;;23.50;92.00;;;;;;4167894;28;20155;-68
2022/02/21 07:57:46;;;;;;;4.68;2.50;;;23.50;92.50;;;;;;4171033;28;20487;-68
2022/02/21 07:59:51;;;;;;;3.25;2.35;;;23.60;92.20;;;;;;4170937;28;20458;-68
2022/02/21 08:01:59;;;;;;;3.58;2.60;;;23.60;91.80;;;;;;4167408;28;20472;-68
2022/02/21 08:04:04;;;;;;;3.55;2.70;;;23.70;92.20;;;;;;4167089;28;20055;-68
2022/02/21 08:06:11;;;;;;;3.83;2.42;;;23.80;92.30;;;;;;4170650;28;20496;-68
2022/02/21 08:08:20;;;;;;;3.92;2.78;;;23.90;92.00;;;;;;4163764;28;20045;-68
2022/02/21 08:10:24;;;;;;;4.20;2.70;;;23.80;92.00;;;;;;4170055;28;20099;-68
2022/02/21 08:12:29;;;;;;;6.47;2.92;;;23.80;92.10;;;;;;4165977;28;20041;-69
2022/02/21 08:14:37;;;;;;;3.90;2.83;;;23.90;92.10;;;;;;4160635;28;20061;-68
2022/02/21 08:16:42;;;;;;;5.18;3.17;;;23.80;92.00;;;;;;4160241;28;20057;-68
2022/02/21 08:18:47;;;;;;;6.00;2.75;;;23.70;92.40;;;;;;4168978;28;20581;-68
2022/02/21 08:20:55;;;;;;;5.15;3.00;;;23.60;92.30;;;;;;4166086;28;20041;-68
2022/02/21 08:23:02;;;;;;;4.10;2.75;;;23.60;92.40;;;;;;4167611;28;20053;-68
2022/02/21 08:25:08;;;;;;;6.32;2.92;;;23.50;92.30;;;;;;4166322;28;20053;-69
2022/02/21 08:27:17;;;;;;;4.18;3.00;;;23.70;92.20;;;;;;4166710;28;20095;-68
2022/02/21 08:29:21;;;;;;;3.90;2.95;;;23.70;92.70;;;;;;4164643;28;20617;-68
2022/02/21 08:31:26;;;;;;;5.60;3.10;;;23.40;92.70;;;;;;4166519;28;20056;-69
2022/02/21 08:33:32;;;;;;;4.07;3.00;;;23.30;92.60;;;;;;4168035;28;20041;-68
2022/02/21 08:35:36;;;;;;;4.05;3.00;;;23.30;92.60;;;;;;4169983;28;20038;-68
2022/02/21 08:37:41;;;;;;;4.93;2.92;;;23.50;92.80;;;;;;4166826;28;20053;-69
2022/02/21 08:39:49;;;;;;;4.38;2.90;;;23.30;92.70;;;;;;4170259;28;20401;-69
2022/02/21 08:41:54;;;;;;;6.03;3.13;;;23.40;92.70;;;;;;4167238;28;20124;-70
2022/02/21 08:43:58;;;;;;;3.60;2.95;;;23.10;92.90;;;;;;4170519;28;20103;-68
2022/02/21 08:46:06;;;;;;;4.05;3.25;;;23.20;93.30;;;;;;4167192;28;20037;-69
2022/02/21 08:48:31;;;;;;;5.32;3.22;;;23.30;93.20;;;;;;4165085;28;20366;-69
2022/02/21 08:50:38;;;;;;;5.05;3.10;;;23.20;93.20;;;;;;4170197;28;20048;-68
2022/02/21 08:52:45;;;;;;;4.72;3.30;;;23.30;92.80;;;;;;4168643;28;20041;-69
2022/02/21 08:54:50;;;;;;;6.72;3.40;;;23.30;93.10;;;;;;4169904;28;20041;-70
2022/02/21 08:56:55;;;;;;;4.68;3.33;;;23.30;92.80;;;;;;4168081;28;20045;-69
2022/02/21 08:59:03;;;;;;;5.28;3.00;;;23.30;93.00;;;;;;4169516;28;20138;-69
2022/02/21 09:01:09;;;;;;;7.63;3.78;;;23.40;93.00;;;;;;4170260;28;20047;-68
2022/02/21 09:03:14;;;;;;;3.78;3.10;;;23.50;93.00;;;;;;4167680;28;20071;-68
2022/02/21 09:05:25;;;;;;;2.92;2.53;;;23.50;93.20;;;;;;4171456;28;20660;-69
2022/02/21 09:07:29;;;;;;;5.88;2.80;;;23.30;93.20;;;;;;4163325;28;20101;-69
2022/02/21 09:09:34;;;;;;;3.20;2.47;;;23.20;93.50;;;;;;4166830;28;20404;-69
2022/02/21 09:11:43;;;;;;;3.00;2.20;;;23.20;93.50;;;;;;4169321;28;20043;-69
2022/02/21 09:13:47;;;;;;;3.53;2.47;;;23.20;93.30;;;;;;4170522;28;20053;-69
2022/02/21 09:15:52;;;;;;;3.15;2.35;;;23.10;93.50;;;;;;4166058;28;20439;-69
2022/02/21 09:18:03;;;;;;;3.17;2.30;;;23.00;93.70;;;;;;4170935;28;20044;-69
2022/02/21 09:20:08;;;;;;;3.30;2.58;;;23.00;93.50;;;;;;4171374;28;20088;-70
2022/02/21 09:22:13;;;;;;;3.40;2.60;;;23.10;93.50;;;;;;4165811;28;20502;-69
2022/02/21 09:24:23;;;;;;;3.85;2.50;;;23.10;93.50;;;;;;4169104;28;20053;-69
2022/02/21 09:26:29;;;;;;;3.30;2.53;;;23.10;93.60;;;;;;4170073;28;20037;-69
2022/02/21 09:28:34;;;;;;;3.03;2.22;;;23.20;93.50;;;;;;4169573;28;20049;-69
2022/02/21 09:30:40;;;;;;;2.80;2.00;;;23.20;93.40;;;;;;4169122;28;20041;-69
2022/02/21 09:32:44;;;;;;;3.40;2.03;;;23.30;93.20;;;;;;4167529;28;20053;-69
2022/02/21 09:34:54;;;;;;;3.05;1.90;;;23.20;93.30;;;;;;4166521;28;20046;-69
2022/02/21 09:37:02;;;;;;;3.53;2.20;;;23.10;93.60;;;;;;4171042;28;20064;-69
2022/02/21 09:39:08;;;;;;;3.83;2.42;;;23.20;93.50;;;;;;4168865;28;20077;-69
2022/02/21 09:41:13;;;;;;;3.28;2.28;;;23.30;93.60;;;;;;4172677;28;20463;-69
2022/02/21 09:43:26;;;;;;;4.40;2.65;;;23.20;93.60;;;;;;4162234;28;20400;-70
2022/02/21 09:45:31;;;;;;;4.82;3.17;;;23.20;93.50;;;;;;4167684;28;20064;-70
2022/02/21 09:47:35;;;;;;;6.43;3.47;;;23.20;93.60;;;;;;4170432;28;20518;-70
2022/02/21 09:50:04;;;;;;;5.90;3.20;;;23.10;93.90;;;;;;4149667;28;20068;-70
2022/02/21 09:52:09;;;;;;;5.18;3.00;;;23.10;94.00;;;;;;4150912;28;20050;-69
2022/02/21 09:54:14;;;;;;;4.90;2.60;;;23.20;94.00;;;;;;4147473;28;20578;-69
2022/02/21 09:56:20;;;;;;;5.88;2.67;;;23.30;93.90;;;;;;4154043;28;20052;-69
2022/02/21 09:58:25;;;;;;;4.03;2.78;;;23.30;93.80;;;;;;4144610;28;20441;-69
2022/02/21 10:00:29;;;;;;;4.78;2.85;;;23.30;93.50;;;;;;4149611;28;20100;-70
2022/02/21 10:02:39;;;;;;;4.85;3.10;;;23.20;93.40;;;;;;4147832;28;20046;-69
2022/02/21 10:04:43;;;;;;;4.32;2.60;;;23.20;93.90;;;;;;4133996;28;20157;-69
2022/02/21 10:06:56;;;;;;;3.63;2.70;;;23.30;93.60;;;;;;4143587;28;20038;-69
2022/02/21 10:09:15;;;;;;;4.22;2.65;;;23.30;93.50;;;;;;4147277;28;20108;-69
2022/02/21 10:11:25;;;;;;;3.90;2.63;;;23.40;93.40;;;;;;4146447;28;20042;-69
2022/02/21 10:13:30;;;;;;;4.78;2.90;;;23.40;93.50;;;;;;4153275;28;20100;-69
2022/02/21 10:15:40;;;;;;;4.85;2.92;;;23.30;93.40;;;;;;4147832;28;20042;-69
2022/02/21 10:17:46;;;;;;;4.00;2.65;;;23.30;93.50;;;;;;4150313;28;20773;-69
2022/02/21 10:20:02;;;;;;;4.38;2.65;;;23.30;93.60;;;;;;4149450;28;20441;-68
2022/02/21 10:22:14;;;;;;;5.05;3.10;;;23.30;93.70;;;;;;4131224;28;20449;-69
2022/02/21 10:24:19;;;;;;;5.32;3.20;;;23.30;93.40;;;;;;4148268;28;20135;-69
2022/02/21 10:26:32;;;;;;;3.67;2.97;;;23.30;93.40;;;;;;4149980;28;20497;-70
2022/02/21 10:28:42;;;;;;;6.90;3.30;;;23.30;93.30;;;;;;4160143;28;20050;-69
2022/02/21 10:31:07;;;;;;;6.35;3.50;;;23.30;93.30;;;;;;4169724;28;20041;-69
2022/02/21 10:33:18;;;;;;;5.15;3.25;;;23.20;93.70;;;;;;4173043;28;20041;-69
2022/02/21 10:35:30;;;;;;;4.88;3.22;;;23.20;94.10;;;;;;4167234;28;20107;-69
2022/02/21 10:37:41;;;;;;;5.97;3.47;;;23.30;94.00;;;;;;4171755;28;20184;-70
2022/02/21 10:39:45;;;;;;;5.90;3.63;;;23.30;94.30;;;;;;4165987;28;20049;-69
2022/02/21 10:41:53;;;;;;;5.75;3.50;;;23.20;94.10;;;;;;4170414;28;20075;-69
2022/02/21 10:44:14;;;;;;;7.55;4.10;;;23.10;94.30;;;;;;4166221;28;20139;-67
2022/02/21 10:46:18;;;;;;;4.38;3.67;;;23.20;94.10;;;;;;4167510;28;20034;-68
2022/02/21 10:48:26;;;;;;;5.97;4.55;;;23.20;94.00;;;;;;4165902;28;20090;-68
2022/02/21 10:50:33;;;;;;;7.82;4.53;;;23.30;93.70;;;;;;4167959;28;20563;-68
2022/02/21 10:52:39;;;;;;;8.10;4.97;;;23.30;93.90;;;;;;4154299;28;20026;-69
2022/02/21 10:54:47;;;;;;;10.43;5.72;;;23.40;93.90;;;;;;4170826;28;20862;-67
2022/02/21 10:56:52;;;;;;;9.48;7.10;;;23.40;94.00;;;;;;4165781;28;20045;-68
2022/02/21 10:58:58;;;;;;;6.68;5.18;;;23.30;94.20;;;;;;4164250;28;20132;-68